createdAt,value
2017-02-10T00:00:20.068Z,0
2017-02-10T00:01:01.678Z,0
2017-02-10T00:01:43.383Z,0
2017-02-10T00:03:43.274Z,0
2017-02-10T00:04:24.951Z,0
2017-02-10T00:06:45.505Z,0
2017-02-10T00:07:27.176Z,0
2017-02-10T00:08:08.698Z,0
2017-02-10T00:08:50.453Z,0
2017-02-10T00:11:21.235Z,0
2017-02-10T00:13:21.199Z,0
2017-02-10T00:14:02.772Z,0
2017-02-10T00:14:44.482Z,0
2017-02-10T00:15:25.990Z,0
2017-02-10T00:18:01.986Z,0
2017-02-10T00:18:43.650Z,0
2017-02-10T00:19:25.287Z,0
2017-02-10T00:20:06.861Z,0
2017-02-10T00:20:48.209Z,0
2017-02-10T00:21:29.738Z,0
2017-02-10T00:22:11.342Z,0
2017-02-10T00:24:26.742Z,0
2017-02-10T00:25:08.209Z,0
2017-02-10T00:25:49.697Z,0
2017-02-10T00:26:31.417Z,0
2017-02-10T00:27:13.211Z,0
2017-02-10T00:29:28.476Z,0
2017-02-10T00:30:10.182Z,0
2017-02-10T00:30:51.848Z,0
2017-02-10T00:31:33.441Z,0
2017-02-10T00:33:48.638Z,0
2017-02-10T00:34:30.130Z,0
2017-02-10T00:35:11.722Z,0
2017-02-10T00:35:53.322Z,0
2017-02-10T00:36:34.827Z,0
2017-02-10T00:37:16.418Z,0
2017-02-10T00:37:58.074Z,0
2017-02-10T00:42:23.794Z,0
2017-02-10T00:43:05.352Z,0
2017-02-10T00:43:47.161Z,0
2017-02-10T00:44:28.838Z,0
2017-02-10T00:45:10.538Z,0
2017-02-10T00:45:51.902Z,0
2017-02-10T00:46:33.446Z,0
2017-02-10T00:49:04.337Z,0
2017-02-10T00:49:45.942Z,0
2017-02-10T00:50:27.728Z,0
2017-02-10T00:51:09.261Z,0
2017-02-10T00:51:50.866Z,0
2017-02-10T00:54:11.424Z,0
2017-02-10T00:56:11.276Z,0
2017-02-10T00:56:52.883Z,0
2017-02-10T00:59:13.468Z,0
2017-02-10T00:59:55.228Z,0
2017-02-10T01:00:36.808Z,0
2017-02-10T01:01:18.212Z,0
2017-02-10T01:01:59.678Z,0
2017-02-10T01:02:41.278Z,0
2017-02-10T01:03:23.144Z,0
2017-02-10T01:04:04.712Z,0
2017-02-10T01:04:46.461Z,0
2017-02-10T01:07:01.863Z,0
2017-02-10T01:07:43.468Z,0
2017-02-10T01:08:24.996Z,0
2017-02-10T01:09:06.519Z,0
2017-02-10T01:09:48.199Z,0
2017-02-10T01:12:08.745Z,0
2017-02-10T01:12:50.376Z,0
2017-02-10T01:13:32.118Z,0
2017-02-10T01:14:13.763Z,0
2017-02-10T01:14:55.546Z,0
2017-02-10T01:15:37.159Z,0
2017-02-10T01:18:08.063Z,0
2017-02-10T01:18:49.800Z,0
2017-02-10T01:21:26.279Z,0
2017-02-10T01:22:08.041Z,0
2017-02-10T01:22:49.739Z,0
2017-02-10T01:25:26.263Z,0
2017-02-10T01:26:07.922Z,0
2017-02-10T01:26:49.701Z,0
2017-02-10T01:27:31.321Z,0
2017-02-10T01:28:12.991Z,0
2017-02-10T01:30:28.403Z,0
2017-02-10T01:32:43.611Z,0
2017-02-10T01:33:25.341Z,0
2017-02-10T01:34:07.149Z,0
2017-02-10T01:34:48.902Z,0
2017-02-10T01:37:04.056Z,0
2017-02-10T01:41:34.832Z,0
2017-02-10T01:42:16.600Z,0
2017-02-10T01:44:16.693Z,0
2017-02-10T01:44:58.409Z,0
2017-02-10T01:45:39.940Z,0
2017-02-10T01:46:21.462Z,0
2017-02-10T01:47:03.172Z,0
2017-02-10T01:51:23.422Z,0
2017-02-10T01:52:05.005Z,0
2017-02-10T01:52:46.663Z,0
2017-02-10T01:53:28.262Z,0
2017-02-10T01:54:09.967Z,0
2017-02-10T01:54:51.699Z,0
2017-02-10T01:57:07.022Z,0
2017-02-10T01:57:48.718Z,0
2017-02-10T01:58:30.351Z,0
2017-02-10T02:00:51.038Z,0
2017-02-10T02:03:21.654Z,0
2017-02-10T02:04:02.200Z,0
2017-02-10T02:04:42.733Z,0
2017-02-10T02:05:23.262Z,0
2017-02-10T02:06:03.794Z,0
2017-02-10T02:06:44.320Z,0
2017-02-10T02:07:24.847Z,0
2017-02-10T02:08:05.384Z,0
2017-02-10T02:08:45.905Z,0
2017-02-10T02:09:26.434Z,0
2017-02-10T02:10:06.966Z,0
2017-02-10T02:10:47.496Z,0
2017-02-10T02:11:28.032Z,0
2017-02-10T02:12:08.568Z,0
2017-02-10T02:12:49.086Z,0
2017-02-10T02:13:29.649Z,0
2017-02-10T02:14:10.153Z,0
2017-02-10T02:14:50.685Z,0
2017-02-10T02:15:31.208Z,0
2017-02-10T02:16:11.736Z,0
2017-02-10T02:16:52.270Z,0
2017-02-10T02:17:32.803Z,0
2017-02-10T02:18:13.341Z,0
2017-02-10T02:18:53.870Z,0
2017-02-10T02:19:34.402Z,0
2017-02-10T02:20:14.932Z,0
2017-02-10T02:20:55.466Z,0
2017-02-10T02:21:35.994Z,0
2017-02-10T02:22:16.525Z,0
2017-02-10T02:22:57.062Z,0
2017-02-10T02:23:37.590Z,0
2017-02-10T02:24:18.130Z,0
2017-02-10T02:24:58.681Z,0
2017-02-10T02:25:39.215Z,0
2017-02-10T02:26:19.744Z,0
2017-02-10T02:27:00.276Z,0
2017-02-10T02:27:40.807Z,0
2017-02-10T02:28:21.335Z,0
2017-02-10T02:29:01.867Z,0
2017-02-10T02:29:42.397Z,0
2017-02-10T02:30:22.919Z,0
2017-02-10T02:31:03.446Z,0
2017-02-10T02:31:43.984Z,0
2017-02-10T02:32:24.506Z,0
2017-02-10T02:33:05.050Z,0
2017-02-10T02:33:45.582Z,0
2017-02-10T02:34:26.102Z,0
2017-02-10T02:35:06.735Z,0
2017-02-10T02:35:47.209Z,0
2017-02-10T02:36:27.740Z,0
2017-02-10T02:37:08.271Z,0
2017-02-10T02:37:48.804Z,0
2017-02-10T02:38:29.342Z,0
2017-02-10T02:39:09.883Z,0
2017-02-10T02:39:50.397Z,0
2017-02-10T02:40:30.918Z,0
2017-02-10T02:41:11.453Z,0
2017-02-10T02:41:51.978Z,0
2017-02-10T02:42:32.509Z,0
2017-02-10T02:43:13.041Z,0
2017-02-10T02:43:53.573Z,0
2017-02-10T02:44:34.105Z,0
2017-02-10T02:45:14.638Z,0
2017-02-10T02:45:55.159Z,0
2017-02-10T02:46:35.693Z,0
2017-02-10T02:47:16.258Z,0
2017-02-10T02:47:56.758Z,0
2017-02-10T02:48:37.281Z,0
2017-02-10T02:49:17.809Z,0
2017-02-10T02:49:58.345Z,0
2017-02-10T02:50:38.877Z,0
2017-02-10T02:51:19.408Z,0
2017-02-10T02:51:59.944Z,0
2017-02-10T02:52:40.462Z,0
2017-02-10T02:53:20.993Z,0
2017-02-10T02:54:01.529Z,0
2017-02-10T02:54:42.056Z,0
2017-02-10T02:55:22.583Z,0
2017-02-10T02:56:03.120Z,0
2017-02-10T02:56:43.651Z,0
2017-02-10T02:57:24.183Z,0
2017-02-10T02:58:04.716Z,0
2017-02-10T02:58:45.246Z,0
2017-02-10T02:59:25.772Z,0
2017-02-10T03:00:06.301Z,0
2017-02-10T03:00:46.830Z,0
2017-02-10T03:01:27.361Z,0
2017-02-10T03:02:07.881Z,0
2017-02-10T03:02:48.409Z,0
2017-02-10T03:03:28.940Z,0
2017-02-10T03:04:09.471Z,0
2017-02-10T03:04:50.007Z,0
2017-02-10T03:05:30.534Z,0
2017-02-10T03:06:11.059Z,0
2017-02-10T03:06:51.579Z,0
2017-02-10T03:07:32.119Z,0
2017-02-10T03:08:12.643Z,0
2017-02-10T03:08:53.178Z,0
2017-02-10T03:09:33.708Z,0
2017-02-10T03:10:14.238Z,0
2017-02-10T03:10:54.770Z,0
2017-02-10T03:11:35.295Z,0
2017-02-10T03:12:15.824Z,0
2017-02-10T03:12:56.357Z,0
2017-02-10T03:13:36.891Z,0
2017-02-10T03:14:17.420Z,0
2017-02-10T03:14:57.943Z,0
2017-02-10T03:15:38.472Z,0
2017-02-10T03:16:19.009Z,0
2017-02-10T03:16:59.541Z,0
2017-02-10T03:17:40.072Z,0
2017-02-10T03:18:20.597Z,0
2017-02-10T03:19:01.125Z,0
2017-02-10T03:19:41.662Z,0
2017-02-10T03:20:22.187Z,0
2017-02-10T03:21:02.723Z,0
2017-02-10T03:21:43.250Z,0
2017-02-10T03:22:23.774Z,0
2017-02-10T03:23:04.313Z,0
2017-02-10T03:23:44.843Z,0
2017-02-10T03:24:25.387Z,0
2017-02-10T03:25:05.900Z,0
2017-02-10T03:25:46.426Z,0
2017-02-10T03:26:26.965Z,0
2017-02-10T03:27:07.485Z,0
2017-02-10T03:27:48.015Z,0
2017-02-10T03:28:28.538Z,0
2017-02-10T03:29:09.069Z,0
2017-02-10T03:29:49.600Z,0
2017-02-10T03:30:30.133Z,0
2017-02-10T03:31:10.661Z,0
2017-02-10T03:31:51.185Z,0
2017-02-10T03:32:31.718Z,0
2017-02-10T03:33:12.251Z,0
2017-02-10T03:33:52.786Z,0
2017-02-10T03:34:33.314Z,0
2017-02-10T03:35:13.843Z,0
2017-02-10T03:35:54.371Z,0
2017-02-10T03:36:34.903Z,0
2017-02-10T03:37:15.435Z,0
2017-02-10T03:37:55.958Z,0
2017-02-10T03:38:36.487Z,0
2017-02-10T03:39:17.022Z,0
2017-02-10T03:39:57.557Z,0
2017-02-10T03:40:38.087Z,0
2017-02-10T03:41:18.622Z,0
2017-02-10T03:41:59.152Z,0
2017-02-10T03:42:39.682Z,0
2017-02-10T03:43:20.197Z,0
2017-02-10T03:44:00.728Z,0
2017-02-10T03:44:41.259Z,0
2017-02-10T03:45:21.787Z,0
2017-02-10T03:46:02.325Z,0
2017-02-10T03:46:42.882Z,0
2017-02-10T03:47:23.414Z,0
2017-02-10T03:48:03.944Z,0
2017-02-10T03:48:47.011Z,0
2017-02-10T03:49:27.583Z,0
2017-02-10T03:50:08.112Z,0
2017-02-10T03:50:48.640Z,0
2017-02-10T03:51:29.165Z,0
2017-02-10T03:52:09.701Z,0
2017-02-10T03:52:50.236Z,0
2017-02-10T03:53:30.751Z,0
2017-02-10T03:54:11.283Z,0
2017-02-10T03:54:51.809Z,0
2017-02-10T03:55:32.336Z,0
2017-02-10T03:56:12.865Z,0
2017-02-10T03:56:53.394Z,0
2017-02-10T03:57:33.925Z,0
2017-02-10T03:58:14.455Z,0
2017-02-10T03:58:54.987Z,0
2017-02-10T03:59:35.522Z,0
2017-02-10T04:00:16.048Z,0
2017-02-10T04:00:56.579Z,0
2017-02-10T04:01:37.105Z,0
2017-02-10T04:02:17.642Z,0
2017-02-10T04:02:58.163Z,0
2017-02-10T04:03:38.903Z,0
2017-02-10T04:04:19.404Z,0
2017-02-10T04:04:59.927Z,0
2017-02-10T04:05:40.452Z,0
2017-02-10T04:06:20.984Z,0
2017-02-10T04:07:01.516Z,0
2017-02-10T04:07:42.048Z,0
2017-02-10T04:08:22.575Z,0
2017-02-10T04:09:03.108Z,0
2017-02-10T04:09:43.637Z,0
2017-02-10T04:10:24.171Z,0
2017-02-10T04:11:04.701Z,0
2017-02-10T04:11:45.235Z,0
2017-02-10T04:12:25.763Z,0
2017-02-10T04:13:06.296Z,0
2017-02-10T04:13:46.840Z,0
2017-02-10T04:14:27.366Z,0
2017-02-10T04:15:07.893Z,0
2017-02-10T04:15:48.420Z,0
2017-02-10T04:16:28.959Z,0
2017-02-10T04:17:09.482Z,0
2017-02-10T04:17:50.020Z,0
2017-02-10T04:18:30.543Z,0
2017-02-10T04:19:11.071Z,0
2017-02-10T04:19:51.602Z,0
2017-02-10T04:20:32.129Z,0
2017-02-10T04:21:12.657Z,0
2017-02-10T04:21:53.189Z,0
2017-02-10T04:22:33.716Z,0
2017-02-10T04:23:14.247Z,0
2017-02-10T04:23:54.777Z,0
2017-02-10T04:24:35.320Z,0
2017-02-10T04:25:15.836Z,0
2017-02-10T04:25:56.363Z,0
2017-02-10T04:26:36.894Z,0
2017-02-10T04:27:17.425Z,0
2017-02-10T04:27:57.958Z,0
2017-02-10T04:28:38.487Z,0
2017-02-10T04:29:19.020Z,0
2017-02-10T04:29:59.549Z,0
2017-02-10T04:30:40.081Z,0
2017-02-10T04:31:20.634Z,0
2017-02-10T04:32:01.162Z,0
2017-02-10T04:32:41.691Z,0
2017-02-10T04:33:22.222Z,0
2017-02-10T04:34:02.758Z,0
2017-02-10T04:34:43.284Z,0
2017-02-10T04:35:23.814Z,0
2017-02-10T04:36:04.346Z,0
2017-02-10T04:36:44.871Z,0
2017-02-10T04:37:25.403Z,0
2017-02-10T04:38:05.935Z,0
2017-02-10T04:38:46.469Z,0
2017-02-10T04:39:27.004Z,0
2017-02-10T04:40:07.524Z,0
2017-02-10T04:40:48.055Z,0
2017-02-10T04:41:28.587Z,0
2017-02-10T04:42:09.110Z,0
2017-02-10T04:42:49.636Z,0
2017-02-10T04:43:30.168Z,0
2017-02-10T04:44:10.692Z,0
2017-02-10T04:44:51.220Z,0
2017-02-10T04:45:31.748Z,0
2017-02-10T04:46:12.274Z,0
2017-02-10T04:46:53.957Z,0
2017-02-10T04:47:34.841Z,0
2017-02-10T04:48:15.371Z,0
2017-02-10T04:48:55.900Z,0
2017-02-10T04:49:36.472Z,0
2017-02-10T04:50:17.002Z,0
2017-02-10T04:50:57.530Z,0
2017-02-10T04:51:38.062Z,0
2017-02-10T04:52:18.591Z,0
2017-02-10T04:52:59.125Z,0
2017-02-10T04:53:39.659Z,0
2017-02-10T04:54:20.193Z,0
2017-02-10T04:55:00.731Z,0
2017-02-10T04:55:41.262Z,0
2017-02-10T04:56:21.770Z,0
2017-02-10T04:57:02.302Z,0
2017-02-10T04:57:42.836Z,0
2017-02-10T04:58:23.368Z,0
2017-02-10T04:59:03.902Z,0
2017-02-10T04:59:44.670Z,0
2017-02-10T05:00:25.200Z,0
2017-02-10T05:01:05.727Z,0
2017-02-10T05:01:46.255Z,0
2017-02-10T05:02:26.790Z,0
2017-02-10T05:03:07.319Z,0
2017-02-10T05:03:47.849Z,0
2017-02-10T05:04:28.381Z,0
2017-02-10T05:05:08.904Z,0
2017-02-10T05:05:49.440Z,0
2017-02-10T05:06:29.965Z,0
2017-02-10T05:07:10.496Z,0
2017-02-10T05:07:51.041Z,0
2017-02-10T05:08:31.577Z,0
2017-02-10T05:09:12.141Z,0
2017-02-10T05:09:52.667Z,0
2017-02-10T05:10:33.234Z,0
2017-02-10T05:11:13.767Z,0
2017-02-10T05:11:54.298Z,0
2017-02-10T05:12:34.879Z,0
2017-02-10T05:13:15.412Z,0
2017-02-10T05:13:55.968Z,0
2017-02-10T05:14:36.502Z,0
2017-02-10T05:15:17.035Z,0
2017-02-10T05:15:57.560Z,0
2017-02-10T05:16:38.094Z,0
2017-02-10T05:17:18.627Z,0
2017-02-10T05:17:59.155Z,0
2017-02-10T05:18:39.669Z,0
2017-02-10T05:19:20.201Z,0
2017-02-10T05:20:00.741Z,0
2017-02-10T05:20:41.271Z,0
2017-02-10T05:21:21.812Z,0
2017-02-10T05:22:02.351Z,0
2017-02-10T05:22:42.886Z,0
2017-02-10T05:23:23.422Z,0
2017-02-10T05:24:03.956Z,0
2017-02-10T05:24:44.496Z,0
2017-02-10T05:25:25.329Z,0
2017-02-10T05:26:05.863Z,0
2017-02-10T05:26:46.389Z,0
2017-02-10T05:27:26.918Z,0
2017-02-10T05:28:07.454Z,0
2017-02-10T05:28:47.983Z,0
2017-02-10T05:29:28.516Z,0
2017-02-10T05:30:09.042Z,0
2017-02-10T05:30:49.580Z,0
2017-02-10T05:31:30.109Z,0
2017-02-10T05:32:10.639Z,0
2017-02-10T05:32:51.164Z,0
2017-02-10T05:33:31.686Z,0
2017-02-10T05:34:12.216Z,0
2017-02-10T05:34:52.758Z,0
2017-02-10T05:35:33.290Z,0
2017-02-10T05:36:13.825Z,0
2017-02-10T05:36:54.354Z,0
2017-02-10T05:37:34.880Z,0
2017-02-10T05:38:15.409Z,0
2017-02-10T05:38:55.947Z,0
2017-02-10T05:41:25.416Z,0
2017-02-10T05:42:05.944Z,0
2017-02-10T05:42:46.474Z,0
2017-02-10T05:43:27.008Z,0
2017-02-10T05:44:07.557Z,0
2017-02-10T05:44:48.051Z,0
2017-02-10T05:45:28.577Z,0
2017-02-10T05:46:09.108Z,0
2017-02-10T05:46:49.668Z,0
2017-02-10T05:47:30.190Z,0
2017-02-10T05:48:10.718Z,0
2017-02-10T05:48:51.299Z,0
2017-02-10T05:49:31.834Z,0
2017-02-10T05:50:12.364Z,0
2017-02-10T05:50:52.888Z,0
2017-02-10T05:51:33.421Z,0
2017-02-10T05:52:13.955Z,0
2017-02-10T05:52:54.484Z,0
2017-02-10T05:53:35.008Z,0
2017-02-10T05:54:15.531Z,0
2017-02-10T05:54:56.061Z,0
2017-02-10T05:55:36.584Z,0
2017-02-10T05:56:17.110Z,0
2017-02-10T05:56:57.639Z,0
2017-02-10T05:57:38.174Z,0
2017-02-10T05:58:18.704Z,0
2017-02-10T05:58:59.219Z,0
2017-02-10T05:59:39.737Z,0
2017-02-10T06:00:20.272Z,0
2017-02-10T06:01:00.811Z,0
2017-02-10T06:01:41.340Z,0
2017-02-10T06:02:21.893Z,0
2017-02-10T06:03:02.369Z,0
2017-02-10T06:03:42.898Z,0
2017-02-10T06:04:23.423Z,0
2017-02-10T06:05:03.952Z,0
2017-02-10T06:05:44.501Z,0
2017-02-10T06:06:25.031Z,0
2017-02-10T06:07:05.566Z,0
2017-02-10T06:07:46.094Z,0
2017-02-10T06:08:26.622Z,0
2017-02-10T06:09:07.144Z,0
2017-02-10T06:09:47.669Z,0
2017-02-10T06:10:28.189Z,0
2017-02-10T06:11:08.718Z,0
2017-02-10T06:11:49.244Z,0
2017-02-10T06:12:29.781Z,0
2017-02-10T06:13:10.312Z,0
2017-02-10T06:13:50.835Z,0
2017-02-10T06:14:31.365Z,0
2017-02-10T06:15:11.894Z,0
2017-02-10T06:15:52.423Z,0
2017-02-10T06:16:32.959Z,0
2017-02-10T06:17:13.495Z,0
2017-02-10T06:17:54.019Z,0
2017-02-10T06:18:34.546Z,0
2017-02-10T06:19:15.070Z,0
2017-02-10T06:19:55.600Z,0
2017-02-10T06:20:36.114Z,0
2017-02-10T06:21:16.639Z,0
2017-02-10T06:21:57.169Z,0
2017-02-10T06:22:37.711Z,0
2017-02-10T06:23:18.215Z,0
2017-02-10T06:23:58.734Z,0
2017-02-10T06:24:39.270Z,0
2017-02-10T06:25:19.803Z,0
2017-02-10T06:26:00.333Z,0
2017-02-10T06:26:40.853Z,0
2017-02-10T06:27:21.372Z,0
2017-02-10T06:28:01.893Z,0
2017-02-10T06:28:42.425Z,0
2017-02-10T06:29:22.951Z,0
2017-02-10T06:30:03.484Z,0
2017-02-10T06:30:44.014Z,0
2017-02-10T06:31:24.548Z,0
2017-02-10T06:32:05.071Z,0
2017-02-10T06:32:45.595Z,0
2017-02-10T06:33:26.141Z,0
2017-02-10T06:34:06.676Z,0
2017-02-10T06:34:47.195Z,0
2017-02-10T06:35:27.721Z,0
2017-02-10T06:36:08.249Z,0
2017-02-10T06:36:48.784Z,4
2017-02-10T06:37:29.314Z,4
2017-02-10T06:38:09.840Z,0
2017-02-10T06:38:50.369Z,0
2017-02-10T06:39:30.900Z,4
2017-02-10T06:40:11.434Z,0
2017-02-10T06:40:51.960Z,4
2017-02-10T06:41:32.542Z,4
2017-02-10T06:42:13.018Z,4
2017-02-10T06:42:53.549Z,4
2017-02-10T06:43:34.080Z,4
2017-02-10T06:44:14.615Z,4
2017-02-10T06:44:55.142Z,4
2017-02-10T06:45:35.677Z,8
2017-02-10T06:46:16.208Z,8
2017-02-10T06:46:56.741Z,8
2017-02-10T06:47:37.276Z,8
2017-02-10T06:48:17.875Z,8
2017-02-10T06:48:58.406Z,12
2017-02-10T06:49:38.973Z,8
2017-02-10T06:50:19.530Z,12
2017-02-10T06:51:00.056Z,12
2017-02-10T06:51:40.589Z,16
2017-02-10T06:52:21.120Z,16
2017-02-10T06:53:01.651Z,16
2017-02-10T06:53:42.200Z,16
2017-02-10T06:54:22.750Z,16
2017-02-10T06:55:03.280Z,16
2017-02-10T06:55:43.808Z,16
2017-02-10T06:56:24.332Z,16
2017-02-10T06:57:04.859Z,16
2017-02-10T06:57:45.388Z,20
2017-02-10T06:58:25.936Z,20
2017-02-10T06:59:06.463Z,20
2017-02-10T06:59:46.981Z,24
2017-02-10T07:00:27.508Z,24
2017-02-10T07:01:08.038Z,28
2017-02-10T07:01:48.564Z,28
2017-02-10T07:02:29.097Z,28
2017-02-10T07:03:09.627Z,32
2017-02-10T07:03:50.155Z,32
2017-02-10T07:04:30.678Z,36
2017-02-10T07:05:11.205Z,40
2017-02-10T07:05:51.733Z,36
2017-02-10T07:06:32.259Z,40
2017-02-10T07:07:12.896Z,40
2017-02-10T07:07:53.425Z,40
2017-02-10T07:08:33.956Z,44
2017-02-10T07:09:14.482Z,48
2017-02-10T07:09:55.019Z,48
2017-02-10T07:10:35.553Z,48
2017-02-10T07:11:16.079Z,52
2017-02-10T07:11:56.619Z,52
2017-02-10T07:12:37.145Z,52
2017-02-10T07:13:17.679Z,52
2017-02-10T07:13:58.203Z,56
2017-02-10T07:14:38.732Z,60
2017-02-10T07:15:19.280Z,56
2017-02-10T07:15:59.811Z,60
2017-02-10T07:16:40.339Z,60
2017-02-10T07:17:20.874Z,64
2017-02-10T07:18:01.401Z,68
2017-02-10T07:18:41.933Z,72
2017-02-10T07:19:22.451Z,68
2017-02-10T07:20:02.990Z,68
2017-02-10T07:20:43.499Z,68
2017-02-10T07:21:24.037Z,72
2017-02-10T07:22:04.575Z,72
2017-02-10T07:22:45.111Z,72
2017-02-10T07:23:25.634Z,72
2017-02-10T07:24:06.161Z,72
2017-02-10T07:24:46.691Z,72
2017-02-10T07:25:27.212Z,72
2017-02-10T07:26:07.740Z,72
2017-02-10T07:26:48.264Z,72
2017-02-10T07:27:28.789Z,72
2017-02-10T07:28:09.320Z,76
2017-02-10T07:28:49.842Z,80
2017-02-10T07:29:30.373Z,80
2017-02-10T07:30:10.885Z,80
2017-02-10T07:30:51.416Z,80
2017-02-10T07:31:31.955Z,84
2017-02-10T07:32:12.495Z,92
2017-02-10T07:32:53.014Z,92
2017-02-10T07:33:33.544Z,92
2017-02-10T07:34:14.081Z,96
2017-02-10T07:34:54.604Z,96
2017-02-10T07:35:35.131Z,100
2017-02-10T07:36:15.660Z,104
2017-02-10T07:36:56.189Z,108
2017-02-10T07:37:36.750Z,108
2017-02-10T07:38:17.286Z,104
2017-02-10T07:38:57.819Z,108
2017-02-10T07:39:38.357Z,112
2017-02-10T07:40:18.879Z,116
2017-02-10T07:40:59.410Z,120
2017-02-10T07:41:39.943Z,128
2017-02-10T07:42:20.472Z,132
2017-02-10T07:43:01.012Z,136
2017-02-10T07:43:41.550Z,140
2017-02-10T07:44:22.074Z,144
2017-02-10T07:46:42.489Z,148
2017-02-10T07:47:23.009Z,152
2017-02-10T07:48:03.538Z,156
2017-02-10T07:48:44.053Z,156
2017-02-10T07:49:24.576Z,160
2017-02-10T07:50:05.135Z,160
2017-02-10T07:50:45.635Z,164
2017-02-10T07:51:26.155Z,164
2017-02-10T07:52:06.688Z,168
2017-02-10T07:52:47.208Z,172
2017-02-10T07:53:27.736Z,176
2017-02-10T07:54:08.276Z,184
2017-02-10T07:54:48.803Z,188
2017-02-10T07:55:29.398Z,196
2017-02-10T07:56:09.946Z,200
2017-02-10T07:56:50.475Z,208
2017-02-10T07:57:31.015Z,212
2017-02-10T07:58:11.548Z,212
2017-02-10T07:58:52.074Z,212
2017-02-10T07:59:32.598Z,220
2017-02-10T08:00:13.142Z,228
2017-02-10T08:00:53.667Z,232
2017-02-10T08:01:34.203Z,244
2017-02-10T08:02:14.734Z,248
2017-02-10T08:02:55.277Z,256
2017-02-10T08:03:35.803Z,256
2017-02-10T08:04:16.341Z,256
2017-02-10T08:04:56.865Z,264
2017-02-10T08:05:37.408Z,272
2017-02-10T08:06:17.939Z,280
2017-02-10T08:06:58.459Z,288
2017-02-10T08:07:38.990Z,280
2017-02-10T08:08:19.513Z,276
2017-02-10T08:09:00.038Z,272
2017-02-10T08:09:40.569Z,276
2017-02-10T08:10:21.094Z,284
2017-02-10T08:11:01.620Z,288
2017-02-10T08:11:42.146Z,288
2017-02-10T08:12:22.674Z,288
2017-02-10T08:13:03.234Z,292
2017-02-10T08:13:43.765Z,292
2017-02-10T08:14:24.300Z,300
2017-02-10T08:15:04.832Z,300
2017-02-10T08:15:45.363Z,304
2017-02-10T08:16:25.886Z,304
2017-02-10T08:17:06.399Z,316
2017-02-10T08:17:46.931Z,332
2017-02-10T08:18:27.454Z,340
2017-02-10T08:19:07.967Z,344
2017-02-10T08:19:48.500Z,348
2017-02-10T08:20:29.025Z,356
2017-02-10T08:21:09.562Z,376
2017-02-10T08:21:50.089Z,396
2017-02-10T08:22:30.608Z,416
2017-02-10T08:23:11.133Z,428
2017-02-10T08:23:51.669Z,436
2017-02-10T08:24:32.191Z,440
2017-02-10T08:25:12.714Z,440
2017-02-10T08:25:53.255Z,452
2017-02-10T08:26:33.776Z,472
2017-02-10T08:27:14.302Z,476
2017-02-10T08:27:54.833Z,480
2017-02-10T08:28:35.360Z,484
2017-02-10T08:29:15.922Z,504
2017-02-10T08:29:56.455Z,536
2017-02-10T08:30:36.993Z,560
2017-02-10T08:31:17.523Z,588
2017-02-10T08:31:58.134Z,596
2017-02-10T08:32:38.664Z,588
2017-02-10T08:33:19.226Z,612
2017-02-10T08:33:59.725Z,612
2017-02-10T08:34:40.248Z,616
2017-02-10T08:35:20.808Z,628
2017-02-10T08:36:01.335Z,612
2017-02-10T08:36:41.863Z,604
2017-02-10T08:37:22.478Z,588
2017-02-10T08:38:03.029Z,600
2017-02-10T08:38:43.581Z,604
2017-02-10T08:39:24.081Z,616
2017-02-10T08:40:04.616Z,620
2017-02-10T08:40:45.147Z,628
2017-02-10T08:41:25.665Z,628
2017-02-10T08:42:06.192Z,624
2017-02-10T08:42:46.721Z,632
2017-02-10T08:43:27.280Z,640
2017-02-10T08:44:07.819Z,644
2017-02-10T08:44:48.356Z,644
2017-02-10T08:45:28.887Z,648
2017-02-10T08:46:09.416Z,636
2017-02-10T08:46:49.949Z,620
2017-02-10T08:47:30.483Z,604
2017-02-10T08:48:11.023Z,596
2017-02-10T08:48:51.550Z,584
2017-02-10T08:49:32.089Z,584
2017-02-10T08:50:12.618Z,588
2017-02-10T08:50:53.152Z,596
2017-02-10T08:51:33.683Z,616
2017-02-10T08:52:14.213Z,628
2017-02-10T08:52:54.740Z,608
2017-02-10T08:53:35.271Z,596
2017-02-10T08:54:15.807Z,568
2017-02-10T08:54:56.332Z,548
2017-02-10T08:55:36.861Z,540
2017-02-10T08:56:17.396Z,532
2017-02-10T08:56:57.925Z,528
2017-02-10T08:57:38.450Z,532
2017-02-10T08:58:19.049Z,536
2017-02-10T08:58:59.568Z,532
2017-02-10T08:59:40.092Z,528
2017-02-10T09:00:20.631Z,520
2017-02-10T09:01:01.162Z,492
2017-02-10T09:01:41.683Z,480
2017-02-10T09:02:22.200Z,492
2017-02-10T09:03:02.730Z,516
2017-02-10T09:03:43.250Z,520
2017-02-10T09:04:23.781Z,500
2017-02-10T09:05:04.304Z,468
2017-02-10T09:05:44.835Z,448
2017-02-10T09:06:25.356Z,452
2017-02-10T09:07:05.892Z,456
2017-02-10T09:07:46.429Z,452
2017-02-10T09:08:26.957Z,452
2017-02-10T09:09:07.499Z,448
2017-02-10T09:09:48.035Z,460
2017-02-10T09:10:28.586Z,484
2017-02-10T09:11:09.120Z,496
2017-02-10T09:11:49.652Z,500
2017-02-10T09:12:30.181Z,520
2017-02-10T09:13:10.743Z,552
2017-02-10T09:13:51.272Z,584
2017-02-10T09:14:31.792Z,612
2017-02-10T09:15:12.326Z,612
2017-02-10T09:15:52.855Z,592
2017-02-10T09:16:33.369Z,620
2017-02-10T09:17:13.906Z,604
2017-02-10T09:17:54.440Z,596
2017-02-10T09:18:34.973Z,628
2017-02-10T09:19:15.506Z,656
2017-02-10T09:19:56.044Z,624
2017-02-10T09:20:36.569Z,620
2017-02-10T09:21:17.086Z,612
2017-02-10T09:21:57.643Z,612
2017-02-10T09:22:38.177Z,596
2017-02-10T09:23:18.709Z,580
2017-02-10T09:23:59.232Z,592
2017-02-10T09:24:39.758Z,608
2017-02-10T09:25:20.296Z,656
2017-02-10T09:26:00.820Z,700
2017-02-10T09:26:41.340Z,684
2017-02-10T09:27:21.871Z,664
2017-02-10T09:28:02.402Z,668
2017-02-10T09:28:42.929Z,648
2017-02-10T09:29:23.459Z,628
2017-02-10T09:30:03.983Z,620
2017-02-10T09:30:44.513Z,640
2017-02-10T09:31:25.047Z,676
2017-02-10T09:32:05.578Z,680
2017-02-10T09:32:46.114Z,664
2017-02-10T09:33:26.644Z,648
2017-02-10T09:34:07.179Z,656
2017-02-10T09:34:47.706Z,672
2017-02-10T09:35:28.239Z,680
2017-02-10T09:36:08.767Z,668
2017-02-10T09:36:49.312Z,628
2017-02-10T09:37:29.865Z,604
2017-02-10T09:38:10.368Z,628
2017-02-10T09:38:50.903Z,664
2017-02-10T09:39:31.428Z,676
2017-02-10T09:40:11.964Z,672
2017-02-10T09:40:52.497Z,656
2017-02-10T09:41:33.017Z,664
2017-02-10T09:42:13.578Z,684
2017-02-10T09:42:54.084Z,716
2017-02-10T09:43:34.616Z,732
2017-02-10T09:44:15.150Z,696
2017-02-10T09:44:55.671Z,656
2017-02-10T09:45:36.206Z,608
2017-02-10T09:46:16.737Z,628
2017-02-10T09:46:57.269Z,680
2017-02-10T09:47:37.795Z,684
2017-02-10T09:48:18.322Z,664
2017-02-10T09:48:58.860Z,628
2017-02-10T09:49:39.400Z,620
2017-02-10T09:50:19.934Z,616
2017-02-10T09:51:00.466Z,620
2017-02-10T09:51:40.994Z,648
2017-02-10T09:52:21.523Z,724
2017-02-10T09:53:02.062Z,792
2017-02-10T09:53:42.582Z,756
2017-02-10T09:54:23.110Z,684
2017-02-10T09:55:03.639Z,660
2017-02-10T09:55:44.163Z,660
2017-02-10T09:56:24.695Z,636
2017-02-10T09:57:05.223Z,628
2017-02-10T09:57:45.753Z,652
2017-02-10T09:58:26.313Z,656
2017-02-10T09:59:06.842Z,644
2017-02-10T09:59:47.370Z,640
2017-02-10T10:00:27.898Z,648
2017-02-10T10:01:08.431Z,672
2017-02-10T10:01:48.965Z,684
2017-02-10T10:02:29.491Z,676
2017-02-10T10:03:10.022Z,652
2017-02-10T10:03:50.552Z,632
2017-02-10T10:04:31.086Z,648
2017-02-10T10:05:11.617Z,656
2017-02-10T10:05:52.141Z,652
2017-02-10T10:06:32.674Z,628
2017-02-10T10:07:13.206Z,620
2017-02-10T10:07:53.736Z,632
2017-02-10T10:08:34.264Z,644
2017-02-10T10:09:14.793Z,648
2017-02-10T10:09:55.321Z,676
2017-02-10T10:10:35.851Z,716
2017-02-10T10:11:16.385Z,752
2017-02-10T10:11:56.921Z,764
2017-02-10T10:12:37.451Z,800
2017-02-10T10:13:17.983Z,856
2017-02-10T10:13:58.512Z,828
2017-02-10T10:14:39.040Z,792
2017-02-10T10:15:19.561Z,772
2017-02-10T10:16:00.090Z,760
2017-02-10T10:16:40.625Z,788
2017-02-10T10:17:21.158Z,820
2017-02-10T10:18:01.689Z,820
2017-02-10T10:18:42.221Z,788
2017-02-10T10:19:22.753Z,784
2017-02-10T10:20:03.287Z,784
2017-02-10T10:20:43.828Z,804
2017-02-10T10:21:24.360Z,832
2017-02-10T10:22:04.893Z,848
2017-02-10T10:22:45.425Z,832
2017-02-10T10:23:25.957Z,828
2017-02-10T10:24:06.486Z,796
2017-02-10T10:24:47.015Z,784
2017-02-10T10:25:27.546Z,800
2017-02-10T10:26:08.083Z,800
2017-02-10T10:26:48.595Z,784
2017-02-10T10:27:29.132Z,748
2017-02-10T10:28:09.666Z,720
2017-02-10T10:28:50.190Z,712
2017-02-10T10:29:30.720Z,672
2017-02-10T10:30:11.234Z,648
2017-02-10T10:30:51.770Z,676
2017-02-10T10:31:32.298Z,716
2017-02-10T10:32:12.829Z,716
2017-02-10T10:32:53.362Z,728
2017-02-10T10:33:33.899Z,772
2017-02-10T10:34:14.432Z,780
2017-02-10T10:34:54.953Z,804
2017-02-10T10:35:35.488Z,816
2017-02-10T10:36:16.019Z,824
2017-02-10T10:36:56.550Z,808
2017-02-10T10:37:37.089Z,756
2017-02-10T10:38:17.620Z,752
2017-02-10T10:38:58.154Z,760
2017-02-10T10:39:38.692Z,752